createdAt,value
2019-03-31T00:02:24.637Z,39.73
2019-03-31T00:04:59.032Z,43.98
2019-03-31T00:07:33.810Z,46.88
2019-03-31T00:10:06.860Z,43.13
2019-03-31T00:12:40.878Z,46.20
2019-03-31T00:15:14.362Z,44.73
2019-03-31T00:17:48.598Z,45.45
2019-03-31T00:20:21.972Z,43.00
2019-03-31T00:22:56.342Z,43.13
2019-03-31T00:25:30.691Z,44.00
2019-03-31T00:28:03.450Z,44.77
2019-03-31T00:30:37.336Z,42.78
2019-03-31T00:33:11.599Z,45.58
2019-03-31T00:35:44.791Z,43.00
2019-03-31T00:38:19.352Z,46.35
2019-03-31T00:40:53.455Z,45.08
2019-03-31T00:43:27.835Z,44.50
2019-03-31T00:46:02.049Z,46.53
2019-03-31T00:48:36.216Z,43.40
2019-03-31T00:51:09.403Z,45.67
2019-03-31T00:53:42.711Z,44.98
2019-03-31T00:56:16.499Z,47.20
2019-03-31T00:58:53.085Z,42.20
2019-03-31T01:01:37.073Z,43.40
2019-03-31T01:04:15.144Z,45.33
2019-03-31T01:06:52.952Z,43.50
2019-03-31T01:09:32.967Z,42.50
2019-03-31T01:12:06.697Z,42.83
2019-03-31T01:14:42.680Z,46.25
2019-03-31T01:17:18.868Z,44.58
2019-03-31T01:19:54.556Z,45.92
2019-03-31T01:22:28.661Z,43.63
2019-03-31T01:25:02.972Z,43.42
2019-03-31T01:27:38.526Z,45.78
2019-03-31T01:30:12.568Z,45.23
2019-03-31T01:32:47.413Z,48.73
2019-03-31T01:35:21.243Z,43.33
2019-03-31T01:37:55.375Z,46.05
2019-03-31T01:40:28.571Z,42.73
2019-03-31T01:43:02.207Z,44.70
2019-03-31T01:45:36.220Z,46.85
2019-03-31T01:48:10.333Z,44.80
2019-03-31T01:50:44.387Z,44.90
2019-03-31T01:53:18.378Z,43.42
2019-03-31T01:55:51.964Z,46.08
2019-03-31T01:58:25.906Z,47.10
2019-03-31T02:01:01.172Z,43.40
2019-03-31T02:03:34.393Z,46.45
2019-03-31T02:06:08.407Z,43.20
2019-03-31T02:08:42.611Z,43.95
2019-03-31T02:11:16.115Z,46.00
2019-03-31T02:13:49.373Z,44.50
2019-03-31T02:16:23.624Z,45.78
2019-03-31T02:18:57.757Z,45.73
2019-03-31T02:21:31.400Z,43.38
2019-03-31T02:24:05.065Z,42.80
2019-03-31T02:26:38.658Z,44.53
2019-03-31T02:29:13.635Z,45.05
2019-03-31T02:31:48.050Z,44.63
2019-03-31T02:34:21.196Z,44.30
2019-03-31T02:36:55.004Z,46.50
2019-03-31T02:39:29.040Z,46.30
2019-03-31T02:42:02.618Z,45.30
2019-03-31T02:44:36.241Z,45.70
2019-03-31T02:47:09.858Z,45.63
2019-03-31T02:49:43.358Z,44.20
2019-03-31T02:52:16.153Z,48.50
2019-03-31T02:54:50.483Z,46.30
2019-03-31T02:57:24.607Z,47.80
2019-03-31T02:59:59.476Z,49.45
2019-03-31T03:02:42.202Z,47.30
2019-03-31T03:05:19.546Z,45.35
2019-03-31T03:07:48.986Z,48.45
2019-03-31T03:10:24.118Z,48.85
2019-03-31T03:13:01.135Z,49.63
2019-03-31T03:15:39.281Z,51.45
2019-03-31T03:18:13.435Z,52.17
2019-03-31T03:20:47.818Z,51.75
2019-03-31T03:23:22.852Z,51.18
2019-03-31T03:25:56.963Z,54.73
2019-03-31T03:28:31.095Z,50.50
2019-03-31T03:31:05.189Z,49.45
2019-03-31T03:33:39.675Z,52.65
2019-03-31T03:36:13.622Z,48.65
2019-03-31T03:38:47.766Z,54.10
2019-03-31T03:41:21.385Z,55.65
2019-03-31T03:43:58.050Z,53.17
2019-03-31T03:46:30.942Z,55.60
2019-03-31T03:49:05.052Z,53.80
2019-03-31T03:51:38.448Z,52.83
2019-03-31T03:54:12.248Z,53.00
2019-03-31T03:56:45.777Z,49.00
2019-03-31T03:59:19.688Z,44.73
2019-03-31T04:01:54.357Z,45.73
2019-03-31T04:04:28.541Z,45.03
2019-03-31T04:07:02.096Z,42.83
2019-03-31T04:09:35.712Z,43.17
2019-03-31T04:12:09.848Z,43.63
2019-03-31T04:14:44.031Z,44.45
2019-03-31T04:17:18.186Z,46.00
2019-03-31T04:19:51.917Z,44.35
2019-03-31T04:22:25.569Z,42.70
2019-03-31T04:24:59.639Z,47.08
2019-03-31T04:27:33.572Z,45.17
2019-03-31T04:30:07.500Z,47.80
2019-03-31T04:32:41.412Z,51.80
2019-03-31T04:35:15.153Z,53.35
2019-03-31T04:37:49.837Z,50.55
2019-03-31T04:40:23.090Z,50.88
2019-03-31T04:42:56.922Z,49.93
2019-03-31T04:45:30.757Z,50.38
2019-03-31T04:48:03.902Z,50.25
2019-03-31T04:50:37.604Z,47.85
2019-03-31T04:53:11.558Z,49.25
2019-03-31T04:55:45.417Z,48.17
2019-03-31T04:58:19.318Z,52.50
2019-03-31T05:00:52.871Z,49.50
2019-03-31T05:03:26.813Z,48.02
2019-03-31T05:06:00.802Z,45.58
2019-03-31T05:08:34.824Z,44.08
2019-03-31T05:11:08.264Z,43.65
2019-03-31T05:13:42.155Z,40.63
2019-03-31T05:16:15.225Z,38.38
2019-03-31T05:18:48.578Z,38.90
2019-03-31T05:21:22.770Z,35.55
2019-03-31T05:23:56.390Z,36.40
2019-03-31T05:26:29.909Z,34.95
2019-03-31T05:29:03.839Z,37.05
2019-03-31T05:31:37.754Z,35.52
2019-03-31T05:34:19.069Z,36.45
2019-03-31T05:36:46.666Z,33.73
2019-03-31T05:39:20.267Z,32.80
2019-03-31T05:41:53.408Z,32.40
2019-03-31T05:44:27.492Z,33.13
2019-03-31T05:47:01.564Z,33.10
2019-03-31T05:49:35.603Z,31.73
2019-03-31T05:52:08.707Z,30.17
2019-03-31T05:54:42.317Z,33.60
2019-03-31T05:57:16.481Z,32.13
2019-03-31T05:59:50.961Z,34.18
2019-03-31T06:02:24.704Z,31.75
2019-03-31T06:04:59.058Z,32.55
2019-03-31T06:07:33.056Z,33.05
2019-03-31T06:10:07.289Z,30.95
2019-03-31T06:12:41.206Z,29.65
2019-03-31T06:15:15.293Z,31.55
2019-03-31T06:17:47.981Z,26.05
2019-03-31T06:20:21.322Z,27.20
2019-03-31T06:22:55.743Z,26.33
2019-03-31T06:25:29.219Z,25.55
2019-03-31T06:28:03.509Z,23.90
2019-03-31T06:30:37.126Z,23.87
2019-03-31T06:33:10.830Z,23.92
2019-03-31T06:35:44.510Z,24.23
2019-03-31T06:38:17.817Z,25.55
2019-03-31T06:40:53.071Z,24.95
2019-03-31T06:43:26.872Z,20.37
2019-03-31T06:46:00.185Z,22.32
2019-03-31T06:48:34.407Z,21.00
2019-03-31T06:51:08.010Z,23.00
2019-03-31T06:53:41.745Z,20.77
2019-03-31T06:56:15.815Z,19.77
2019-03-31T06:58:49.667Z,20.62
2019-03-31T07:01:23.340Z,20.23
2019-03-31T07:03:56.919Z,21.10
2019-03-31T07:06:30.033Z,19.02
2019-03-31T07:09:05.866Z,18.52
2019-03-31T07:11:40.656Z,18.73
2019-03-31T07:14:14.506Z,18.65
2019-03-31T07:16:48.537Z,20.15
2019-03-31T07:19:22.123Z,17.57
2019-03-31T07:21:55.734Z,18.90
2019-03-31T07:24:29.647Z,17.12
2019-03-31T07:27:03.681Z,16.07
2019-03-31T07:29:37.956Z,15.32
2019-03-31T07:32:11.229Z,12.35
2019-03-31T07:34:44.752Z,14.00
2019-03-31T07:37:18.906Z,14.23
2019-03-31T07:39:52.962Z,11.40
2019-03-31T07:42:27.396Z,13.93
2019-03-31T07:45:01.538Z,12.47
2019-03-31T07:47:36.171Z,11.05
2019-03-31T07:50:12.068Z,12.50
2019-03-31T07:52:46.316Z,9.75
2019-03-31T07:55:20.470Z,10.78
2019-03-31T07:57:54.677Z,12.37
2019-03-31T08:00:30.264Z,9.38
2019-03-31T08:03:03.908Z,9.75
2019-03-31T08:05:39.155Z,10.25
2019-03-31T08:08:12.754Z,10.10
2019-03-31T08:10:46.743Z,10.43
2019-03-31T08:13:20.267Z,9.75
2019-03-31T08:15:53.651Z,10.63
2019-03-31T08:18:28.294Z,9.58
2019-03-31T08:21:02.548Z,9.40
2019-03-31T08:23:36.026Z,11.43
2019-03-31T08:26:11.151Z,9.60
2019-03-31T08:28:44.631Z,8.95
2019-03-31T08:31:18.217Z,9.93
2019-03-31T08:33:51.464Z,8.90
2019-03-31T08:36:25.548Z,9.88
2019-03-31T08:38:59.311Z,8.75
2019-03-31T08:41:33.486Z,8.03
2019-03-31T08:44:06.654Z,8.80
2019-03-31T08:46:41.308Z,9.05
2019-03-31T08:49:15.156Z,8.85
2019-03-31T08:51:49.013Z,7.92
2019-03-31T08:54:23.155Z,8.35
2019-03-31T08:56:56.891Z,8.68
2019-03-31T08:59:31.302Z,8.20
2019-03-31T09:02:24.467Z,7.28
2019-03-31T09:04:58.019Z,7.95
2019-03-31T09:07:32.390Z,9.65
2019-03-31T09:10:08.910Z,8.93
2019-03-31T09:12:41.827Z,9.68
2019-03-31T09:15:15.497Z,8.83
2019-03-31T09:17:49.382Z,10.00
2019-03-31T09:20:23.064Z,9.50
2019-03-31T09:22:56.480Z,10.25
2019-03-31T09:25:30.989Z,11.65
2019-03-31T09:28:04.343Z,11.60
2019-03-31T09:30:37.491Z,11.22
2019-03-31T09:33:11.618Z,10.68
2019-03-31T09:35:45.379Z,10.60
2019-03-31T09:38:19.364Z,8.40
2019-03-31T09:40:53.492Z,7.05
2019-03-31T09:43:27.109Z,8.40
2019-03-31T09:46:00.807Z,7.72
2019-03-31T09:48:34.848Z,7.95
2019-03-31T09:51:08.478Z,8.38
2019-03-31T09:53:42.587Z,7.42
2019-03-31T09:56:16.622Z,7.22
2019-03-31T09:58:50.300Z,7.25
2019-03-31T10:01:24.752Z,6.75
2019-03-31T10:03:58.387Z,7.15
2019-03-31T10:06:32.704Z,6.35
2019-03-31T10:09:07.450Z,6.80
2019-03-31T10:11:41.954Z,5.40
2019-03-31T10:14:16.478Z,4.80
2019-03-31T10:16:49.749Z,5.83
2019-03-31T10:19:23.790Z,5.53
2019-03-31T10:21:58.123Z,5.40
2019-03-31T10:24:32.555Z,5.37
2019-03-31T10:27:06.685Z,5.53
2019-03-31T10:29:39.960Z,5.85
2019-03-31T10:32:14.500Z,6.75
2019-03-31T10:34:48.642Z,7.47
2019-03-31T10:37:22.519Z,7.08
2019-03-31T10:39:56.515Z,6.60
2019-03-31T10:42:31.319Z,5.95
2019-03-31T10:45:04.848Z,5.70
2019-03-31T10:47:38.278Z,4.92
2019-03-31T10:50:15.132Z,5.08
2019-03-31T10:52:51.616Z,5.47
2019-03-31T10:55:26.530Z,5.85
2019-03-31T17:32:02.233Z,2.08
2019-03-31T17:34:35.831Z,2.35
2019-03-31T17:37:09.351Z,2.10
2019-03-31T17:39:43.334Z,2.30
2019-03-31T17:42:17.315Z,2.02
2019-03-31T17:44:50.078Z,3.90
2019-03-31T17:47:22.906Z,3.62
2019-03-31T17:49:55.825Z,3.80
2019-03-31T17:52:29.985Z,3.42
2019-03-31T17:55:03.358Z,3.45
2019-03-31T17:57:36.487Z,3.20
2019-03-31T18:00:10.363Z,2.55
2019-03-31T18:02:43.906Z,2.10
2019-03-31T18:05:16.815Z,2.37
2019-03-31T18:07:50.082Z,2.80
2019-03-31T18:10:22.600Z,1.85
2019-03-31T18:12:56.594Z,2.00
2019-03-31T18:15:30.315Z,1.50
2019-03-31T18:18:03.050Z,1.57
2019-03-31T18:20:36.646Z,2.15
2019-03-31T18:23:09.594Z,2.60
2019-03-31T18:25:43.175Z,2.80
2019-03-31T18:28:23.026Z,1.87
2019-03-31T18:30:57.194Z,1.90
2019-03-31T18:33:30.372Z,1.80
2019-03-31T18:36:03.872Z,2.00
2019-03-31T18:38:37.290Z,2.65
2019-03-31T18:41:10.441Z,2.05
2019-03-31T18:43:51.235Z,3.02
2019-03-31T18:46:18.641Z,3.25
2019-03-31T18:48:51.847Z,2.47
2019-03-31T18:51:24.729Z,2.20
2019-03-31T18:54:32.825Z,2.90
2019-03-31T18:57:29.384Z,2.42
2019-03-31T19:00:14.363Z,1.67
2019-03-31T19:02:59.630Z,1.50
2019-03-31T19:05:55.005Z,2.00
2019-03-31T19:08:46.385Z,1.80
2019-03-31T19:11:37.479Z,2.12
2019-03-31T19:14:39.645Z,2.50
2019-03-31T19:17:36.066Z,3.05
2019-03-31T19:20:43.940Z,1.67
2019-03-31T19:23:49.081Z,2.00
2019-03-31T19:26:48.411Z,1.80
2019-03-31T19:29:42.315Z,2.60
2019-03-31T19:32:24.076Z,2.10
2019-03-31T19:35:10.451Z,1.50
2019-03-31T19:37:51.622Z,2.62
2019-03-31T19:41:04.515Z,1.62
2019-03-31T19:44:07.259Z,1.70
2019-03-31T19:46:52.022Z,3.00
2019-03-31T19:49:37.313Z,2.20
2019-03-31T19:52:35.058Z,1.92
2019-03-31T19:55:32.844Z,3.05
2019-03-31T19:58:24.258Z,1.80
2019-03-31T20:01:06.082Z,2.10
2019-03-31T20:03:58.241Z,1.60
2019-03-31T20:06:39.525Z,2.05
2019-03-31T20:09:35.870Z,1.60
2019-03-31T20:12:20.183Z,1.72
2019-03-31T20:15:24.531Z,2.50
2019-03-31T20:18:29.285Z,1.85
2019-03-31T20:21:16.123Z,2.58
2019-03-31T20:24:17.882Z,2.02
2019-03-31T20:26:57.001Z,2.30
2019-03-31T20:29:49.157Z,2.00
2019-03-31T20:32:40.987Z,2.50
2019-03-31T20:35:46.953Z,1.60
2019-03-31T20:38:55.347Z,2.60
2019-03-31T20:41:49.928Z,1.85
2019-03-31T20:44:23.475Z,2.42
2019-03-31T20:46:56.709Z,2.33
2019-03-31T20:49:30.413Z,1.60
2019-03-31T20:52:03.449Z,2.00
2019-03-31T20:54:36.904Z,2.15
2019-03-31T20:57:10.566Z,2.40
2019-03-31T20:59:44.699Z,2.60
2019-03-31T21:02:17.926Z,2.08
2019-03-31T21:04:51.790Z,1.90
2019-03-31T21:07:25.987Z,2.27
2019-03-31T21:09:59.597Z,2.10
2019-03-31T21:12:35.944Z,1.82
2019-03-31T21:15:08.818Z,2.10
2019-03-31T21:17:41.640Z,2.00
2019-03-31T21:20:15.216Z,2.47
2019-03-31T21:22:48.323Z,1.90
2019-03-31T21:25:21.920Z,2.00
2019-03-31T21:27:54.276Z,2.55
2019-03-31T21:30:27.755Z,1.85
2019-03-31T21:33:01.637Z,1.52
2019-03-31T21:35:34.262Z,1.70
2019-03-31T21:38:07.286Z,2.22
2019-03-31T21:40:40.443Z,1.35
2019-03-31T21:43:13.273Z,2.00
2019-03-31T21:45:46.309Z,1.77
2019-03-31T21:48:19.599Z,2.45
2019-03-31T21:50:52.223Z,1.60
2019-03-31T21:53:25.584Z,1.32
2019-03-31T21:55:58.866Z,2.05
2019-03-31T21:58:31.825Z,2.02
2019-03-31T22:01:05.154Z,2.17
2019-03-31T22:03:38.180Z,1.55
2019-03-31T22:06:11.799Z,2.75
2019-03-31T22:08:44.947Z,1.55
2019-03-31T22:11:17.999Z,1.82
2019-03-31T22:13:50.986Z,1.50
2019-03-31T22:16:25.201Z,1.65
2019-03-31T22:18:58.505Z,2.30
2019-03-31T22:21:31.495Z,1.50
2019-03-31T22:24:04.050Z,1.50
2019-03-31T22:26:38.076Z,1.82
2019-03-31T22:29:11.231Z,1.47
2019-03-31T22:31:45.381Z,1.60
2019-03-31T22:34:17.962Z,1.35
2019-03-31T22:36:51.277Z,1.52
2019-03-31T22:39:24.411Z,1.77
2019-03-31T22:41:58.171Z,1.98
2019-03-31T22:44:31.213Z,1.70
2019-03-31T22:47:04.816Z,1.85
2019-03-31T22:49:37.770Z,2.47
2019-03-31T22:52:10.757Z,1.30
2019-03-31T22:54:44.338Z,2.35
2019-03-31T22:57:17.900Z,1.75
2019-03-31T22:59:51.256Z,1.75
2019-03-31T23:02:24.266Z,2.45
2019-03-31T23:04:57.689Z,1.85
2019-03-31T23:07:31.035Z,1.77
2019-03-31T23:10:04.287Z,2.10
2019-03-31T23:12:37.172Z,1.55
2019-03-31T23:15:09.850Z,1.90
2019-03-31T23:17:43.347Z,1.52
2019-03-31T23:20:16.082Z,1.80
2019-03-31T23:22:49.095Z,1.57
2019-03-31T23:25:22.001Z,1.22
2019-03-31T23:27:55.042Z,1.45
2019-03-31T23:30:27.659Z,1.47
2019-03-31T23:33:00.980Z,1.72
2019-03-31T23:35:33.978Z,1.30
2019-03-31T23:38:06.963Z,1.60
2019-03-31T23:40:39.969Z,1.85
2019-03-31T23:43:12.185Z,2.20
2019-03-31T23:45:45.517Z,1.50
2019-03-31T23:48:19.918Z,3.22
2019-03-31T23:50:53.458Z,1.62
2019-03-31T23:53:26.067Z,1.67
2019-03-31T23:55:59.088Z,1.80
2019-03-31T23:58:32.394Z,2.00
